Terminal Aerodrome Forecast
Issued by NWS Omaha/Valley, NE

Home | Current Version | Previous Version | Text Only | Print | Product List | Glossary On
Versions: 1 2 3 4 5 6 7 8 9 10 11 12 13 14 15 16 17 18 19 20 21 22 23 24 25 26 27 28 29 30 31 32 33 34 35 36 37 38
000
FTUS43 KOAX 270814 AAA
TAFOFK
TAF AMD
KOFK 270814Z 2708/2806 31010KT 6SM -SN SCT020 OVC035
      TEMPO 2708/2710 3SM -SN BR OVC025
     FM271000 31008KT P6SM OVC025
     FM271600 30007KT P6SM SCT020
     FM272300 VRB04KT P6SM SKC=

USA.gov is the U.S. government's official web portal to all federal, state and local government web resources and services.